KDTW

Detroit Metropolitan Wayne County Airport

Detroit, Michigan, USA
METAR KDTW 171553Z 16006KT 7SM SCT010 BKN015 OVC035 26/21 A2992 RMK AO2 RAB1455E19 SLP128 P0000 T02560211
Observed Flight Rules
Aug-17 @ 15:53 UTC (60 minutes ago) Marginal Visual Flight Rules
Wind Visibility Clouds
160° at 6 knots 7 miles
  • Scattered at 1,000' AGL
  • Broken at 1,500' AGL
  • Overcast at 3,500' AGL
Temperatures Readings Precipitation
Current 26°C / 79°F
Dewpoint 21°C / 70°F
Humidity 74%
Altimeter 29.92" Hg
Pressure 1012.8 hPa
Elevation 195
Current Rain 0.005
METAR KDTW 171553Z 16006KT 7SM SCT010 BKN015 OVC035 26/21 A2992 RMK AO2 RAB1455E19 SLP128 P0000 T02560211
Observed Flight Rules
Aug-17 @ 15:53 UTC
(60 minutes ago)
MVFR
Wind Visibility
160° at 6 knots 7 miles
Clouds
  • Scattered at 1,000' AGL
  • Broken at 1,500' AGL
  • Overcast at 3,500' AGL
Temperature Dewpoint
26°C / 79°F 21°C / 70°F
Humidity Altimeter Pressure
74% 29.92" Hg 1012.8 hPa
Current Rain
0.005